sensor_id;sensor_type;location;lat;lon;timestamp;pressure;altitude;pressure_sealevel;temperature;humidity
70200;BME280;57587;55.688;37.600;2023-04-22T00:00:49;98998.56;;;11.42;37.91
70200;BME280;57587;55.688;37.600;2023-04-22T00:03:16;98997.97;;;11.47;37.79
70200;BME280;57587;55.688;37.600;2023-04-22T00:05:43;98997.13;;;11.46;38.18
70200;BME280;57587;55.688;37.600;2023-04-22T00:08:11;99002.25;;;11.41;37.63
70200;BME280;57587;55.688;37.600;2023-04-22T00:10:38;99001.22;;;11.36;38.27
70200;BME280;57587;55.688;37.600;2023-04-22T00:13:05;99001.03;;;11.30;37.99
70200;BME280;57587;55.688;37.600;2023-04-22T00:15:32;99001.44;;;11.27;38.09
70200;BME280;57587;55.688;37.600;2023-04-22T00:17:59;99001.84;;;11.24;38.46
70200;BME280;57587;55.688;37.600;2023-04-22T00:20:26;99005.72;;;11.22;38.67
70200;BME280;57587;55.688;37.600;2023-04-22T00:22:53;99003.03;;;11.15;38.54
70200;BME280;57587;55.688;37.600;2023-04-22T00:25:20;99002.59;;;11.12;39.04
70200;BME280;57587;55.688;37.600;2023-04-22T00:27:47;99005.25;;;11.12;38.95
70200;BME280;57587;55.688;37.600;2023-04-22T00:30:14;99007.34;;;11.10;38.92
70200;BME280;57587;55.688;37.600;2023-04-22T00:32:41;99012.88;;;11.08;39.21
70200;BME280;57587;55.688;37.600;2023-04-22T00:35:09;99013.09;;;11.06;39.43
70200;BME280;57587;55.688;37.600;2023-04-22T00:37:36;99010.41;;;11.06;39.53
70200;BME280;57587;55.688;37.600;2023-04-22T00:40:03;99007.53;;;11.08;38.75
70200;BME280;57587;55.688;37.600;2023-04-22T00:42:32;99006.31;;;11.11;39.09
70200;BME280;57587;55.688;37.600;2023-04-22T00:45:00;99008.41;;;11.15;39.38
70200;BME280;57587;55.688;37.600;2023-04-22T00:47:30;99002.59;;;11.12;38.89
70200;BME280;57587;55.688;37.600;2023-04-22T00:49:59;99002.59;;;11.12;39.18
70200;BME280;57587;55.688;37.600;2023-04-22T00:52:27;99003.00;;;11.08;39.67
70200;BME280;57587;55.688;37.600;2023-04-22T00:54:54;99004.44;;;11.04;39.46
70200;BME280;57587;55.688;37.600;2023-04-22T00:57:21;99000.72;;;11.05;39.45
70200;BME280;57587;55.688;37.600;2023-04-22T00:59:49;99001.34;;;11.07;39.61
70200;BME280;57587;55.688;37.600;2023-04-22T01:02:16;98999.31;;;11.10;39.35
70200;BME280;57587;55.688;37.600;2023-04-22T01:04:45;99001.78;;;11.11;39.17
70200;BME280;57587;55.688;37.600;2023-04-22T01:07:12;99007.94;;;11.12;38.87
70200;BME280;57587;55.688;37.600;2023-04-22T01:09:40;99002.81;;;11.10;39.26
70200;BME280;57587;55.688;37.600;2023-04-22T01:12:07;99000.13;;;11.10;39.48
70200;BME280;57587;55.688;37.600;2023-04-22T01:14:34;98998.88;;;11.06;39.46
70200;BME280;57587;55.688;37.600;2023-04-22T01:17:02;98995.56;;;11.04;39.78
70200;BME280;57587;55.688;37.600;2023-04-22T01:19:29;98997.44;;;11.03;39.68
70200;BME280;57587;55.688;37.600;2023-04-22T01:22:00;98997.63;;;11.02;39.39
70200;BME280;57587;55.688;37.600;2023-04-22T01:24:28;99000.50;;;11.00;39.82
70200;BME280;57587;55.688;37.600;2023-04-22T01:26:55;98995.34;;;10.99;39.75
70200;BME280;57587;55.688;37.600;2023-04-22T01:29:22;98994.34;;;11.00;39.76
70200;BME280;57587;55.688;37.600;2023-04-22T01:31:50;98996.81;;;11.01;39.51
70200;BME280;57587;55.688;37.600;2023-04-22T01:34:17;98986.50;;;10.98;39.61
70200;BME280;57587;55.688;37.600;2023-04-22T01:36:44;98986.06;;;10.95;39.64
70200;BME280;57587;55.688;37.600;2023-04-22T01:39:12;98988.31;;;10.91;40.31
70200;BME280;57587;55.688;37.600;2023-04-22T01:41:39;98995.94;;;10.88;40.30
70200;BME280;57587;55.688;37.600;2023-04-22T01:44:07;98991.81;;;10.85;39.94
70200;BME280;57587;55.688;37.600;2023-04-22T01:46:34;98991.16;;;10.83;40.47
70200;BME280;57587;55.688;37.600;2023-04-22T01:49:01;98987.66;;;10.76;40.84
70200;BME280;57587;55.688;37.600;2023-04-22T01:51:28;98986.00;;;10.75;41.08
70200;BME280;57587;55.688;37.600;2023-04-22T01:53:55;98985.38;;;10.73;40.78
70200;BME280;57587;55.688;37.600;2023-04-22T01:56:23;98986.41;;;10.72;40.60
70200;BME280;57587;55.688;37.600;2023-04-22T01:58:50;98988.88;;;10.73;40.87
70200;BME280;57587;55.688;37.600;2023-04-22T02:01:18;98989.25;;;10.70;40.59
70200;BME280;57587;55.688;37.600;2023-04-22T02:03:45;98989.25;;;10.70;40.76
70200;BME280;57587;55.688;37.600;2023-04-22T02:06:12;98987.81;;;10.68;40.72
70200;BME280;57587;55.688;37.600;2023-04-22T02:08:40;98984.72;;;10.64;40.91
70200;BME280;57587;55.688;37.600;2023-04-22T02:11:07;98988.03;;;10.66;40.88
70200;BME280;57587;55.688;37.600;2023-04-22T02:13:38;98994.81;;;10.69;41.10
70200;BME280;57587;55.688;37.600;2023-04-22T02:16:07;98994.81;;;10.69;40.77
70200;BME280;57587;55.688;37.600;2023-04-22T02:18:35;98991.50;;;10.67;41.16
70200;BME280;57587;55.688;37.600;2023-04-22T02:21:02;98997.91;;;10.66;41.07
70200;BME280;57587;55.688;37.600;2023-04-22T02:23:29;98994.59;;;10.64;40.71
70200;BME280;57587;55.688;37.600;2023-04-22T02:25:57;98982.66;;;10.66;40.52
70200;BME280;57587;55.688;37.600;2023-04-22T02:28:24;98989.69;;;10.74;40.95
70200;BME280;57587;55.688;37.600;2023-04-22T02:30:51;98990.09;;;10.77;40.53
70200;BME280;57587;55.688;37.600;2023-04-22T02:33:21;98995.91;;;10.81;40.84
70200;BME280;57587;55.688;37.600;2023-04-22T02:35:50;99000.66;;;10.85;40.96
70200;BME280;57587;55.688;37.600;2023-04-22T02:38:18;98994.88;;;10.82;40.97
70200;BME280;57587;55.688;37.600;2023-04-22T02:40:45;98985.22;;;10.81;41.51
70200;BME280;57587;55.688;37.600;2023-04-22T02:43:13;99004.16;;;10.86;40.74
70200;BME280;57587;55.688;37.600;2023-04-22T02:45:40;99006.03;;;10.92;40.99
70200;BME280;57587;55.688;37.600;2023-04-22T02:48:08;99000.28;;;10.95;40.90
70200;BME280;57587;55.688;37.600;2023-04-22T02:50:35;99007.91;;;10.98;40.37
70200;BME280;57587;55.688;37.600;2023-04-22T02:53:03;99006.69;;;11.01;40.35
70200;BME280;57587;55.688;37.600;2023-04-22T02:55:30;99000.09;;;11.03;40.64
70200;BME280;57587;55.688;37.600;2023-04-22T02:57:57;99012.28;;;11.06;40.28
70200;BME280;57587;55.688;37.600;2023-04-22T03:00:24;99005.47;;;11.10;40.39
70200;BME280;57587;55.688;37.600;2023-04-22T03:02:52;99005.91;;;11.14;40.33
70200;BME280;57587;55.688;37.600;2023-04-22T03:05:24;99009.63;;;11.13;40.75
70200;BME280;57587;55.688;37.600;2023-04-22T03:07:51;99008.19;;;11.17;40.31
70200;BME280;57587;55.688;37.600;2023-04-22T03:10:19;99010.44;;;11.20;40.77
70200;BME280;57587;55.688;37.600;2023-04-22T03:12:47;99008.00;;;11.25;40.26
70200;BME280;57587;55.688;37.600;2023-04-22T03:15:15;99015.47;;;11.43;40.05
70200;BME280;57587;55.688;37.600;2023-04-22T03:17:47;99017.94;;;11.58;39.94
70200;BME280;57587;55.688;37.600;2023-04-22T03:20:15;99020.03;;;11.82;39.01
70200;BME280;57587;55.688;37.600;2023-04-22T03:22:42;99018.84;;;12.11;38.11
70200;BME280;57587;55.688;37.600;2023-04-22T03:25:11;99011.38;;;12.46;38.17
70200;BME280;57587;55.688;37.600;2023-04-22T03:27:43;99018.09;;;12.82;37.38
70200;BME280;57587;55.688;37.600;2023-04-22T03:30:10;99012.94;;;13.32;36.58
70200;BME280;57587;55.688;37.600;2023-04-22T03:32:38;99017.72;;;13.94;35.34
70200;BME280;57587;55.688;37.600;2023-04-22T03:35:25;99017.66;;;14.87;33.04
70200;BME280;57587;55.688;37.600;2023-04-22T03:37:54;99020.16;;;15.79;31.65
70200;BME280;57587;55.688;37.600;2023-04-22T03:40:27;99017.84;;;16.65;30.12
70200;BME280;57587;55.688;37.600;2023-04-22T03:42:54;99015.03;;;17.52;28.50
70200;BME280;57587;55.688;37.600;2023-04-22T03:45:22;99011.25;;;18.33;27.53
70200;BME280;57587;55.688;37.600;2023-04-22T03:48:10;99024.63;;;19.17;26.32
70200;BME280;57587;55.688;37.600;2023-04-22T03:50:42;99022.38;;;19.85;25.28
70200;BME280;57587;55.688;37.600;2023-04-22T03:53:09;99029.09;;;20.47;24.46
70200;BME280;57587;55.688;37.600;2023-04-22T03:55:38;99023.19;;;21.08;23.24
70200;BME280;57587;55.688;37.600;2023-04-22T03:58:05;99029.06;;;21.52;23.06
70200;BME280;57587;55.688;37.600;2023-04-22T04:00:33;99023.69;;;21.98;22.32
70200;BME280;57587;55.688;37.600;2023-04-22T04:03:07;99022.56;;;22.61;21.50
70200;BME280;57587;55.688;37.600;2023-04-22T04:05:35;99025.16;;;23.17;21.04
70200;BME280;57587;55.688;37.600;2023-04-22T04:08:02;99029.72;;;23.81;20.26
70200;BME280;57587;55.688;37.600;2023-04-22T04:10:30;99025.97;;;24.41;19.45
70200;BME280;57587;55.688;37.600;2023-04-22T04:12:59;99030.34;;;24.95;19.17
70200;BME280;57587;55.688;37.600;2023-04-22T04:15:29;99031.72;;;25.40;18.42
70200;BME280;57587;55.688;37.600;2023-04-22T04:17:57;99028.75;;;25.74;18.38
70200;BME280;57587;55.688;37.600;2023-04-22T04:20:30;99032.16;;;26.37;17.77
70200;BME280;57587;55.688;37.600;2023-04-22T04:22:57;99035.78;;;26.79;17.18
70200;BME280;57587;55.688;37.600;2023-04-22T04:25:25;99042.81;;;27.12;16.66
70200;BME280;57587;55.688;37.600;2023-04-22T04:27:52;99041.72;;;27.41;16.21
70200;BME280;57587;55.688;37.600;2023-04-22T04:30:20;99019.59;;;27.60;16.29
70200;BME280;57587;55.688;37.600;2023-04-22T04:32:52;99025.75;;;28.02;15.81
70200;BME280;57587;55.688;37.600;2023-04-22T04:35:20;99034.88;;;28.34;15.48
70200;BME280;57587;55.688;37.600;2023-04-22T04:37:51;99037.69;;;28.65;15.01
70200;BME280;57587;55.688;37.600;2023-04-22T04:40:20;99028.22;;;28.88;15.17
70200;BME280;57587;55.688;37.600;2023-04-22T04:43:01;99035.66;;;29.45;14.67
70200;BME280;57587;55.688;37.600;2023-04-22T04:45:36;99036.72;;;29.75;14.03
70200;BME280;57587;55.688;37.600;2023-04-22T04:48:04;99043.69;;;29.90;14.10
70200;BME280;57587;55.688;37.600;2023-04-22T04:50:46;99030.88;;;30.20;13.84
70200;BME280;57587;55.688;37.600;2023-04-22T04:53:13;99040.38;;;30.58;13.78
70200;BME280;57587;55.688;37.600;2023-04-22T04:55:42;99030.97;;;30.97;13.39
70200;BME280;57587;55.688;37.600;2023-04-22T04:58:16;99044.66;;;31.23;13.37
70200;BME280;57587;55.688;37.600;2023-04-22T05:00:45;99039.59;;;31.55;13.01
70200;BME280;57587;55.688;37.600;2023-04-22T05:03:14;99043.31;;;31.80;12.84
70200;BME280;57587;55.688;37.600;2023-04-22T05:05:43;99045.38;;;31.91;12.82
70200;BME280;57587;55.688;37.600;2023-04-22T05:08:12;99041.16;;;32.06;12.54
70200;BME280;57587;55.688;37.600;2023-04-22T05:10:40;99043.91;;;32.27;12.17
70200;BME280;57587;55.688;37.600;2023-04-22T05:13:08;99048.47;;;32.44;11.82
70200;BME280;57587;55.688;37.600;2023-04-22T05:15:35;99043.19;;;32.64;12.08
70200;BME280;57587;55.688;37.600;2023-04-22T05:18:03;99053.59;;;32.79;12.20
70200;BME280;57587;55.688;37.600;2023-04-22T05:20:30;99050.88;;;33.16;11.52
70200;BME280;57587;55.688;37.600;2023-04-22T05:23:01;99051.66;;;33.41;11.58
70200;BME280;57587;55.688;37.600;2023-04-22T05:25:28;99051.56;;;33.62;10.97
70200;BME280;57587;55.688;37.600;2023-04-22T05:28:02;99055.63;;;34.05;11.11
70200;BME280;57587;55.688;37.600;2023-04-22T05:30:35;99047.28;;;34.05;10.80
70200;BME280;57587;55.688;37.600;2023-04-22T05:33:02;99053.50;;;34.14;11.01
70200;BME280;57587;55.688;37.600;2023-04-22T05:35:30;99048.19;;;34.09;10.91
70200;BME280;57587;55.688;37.600;2023-04-22T05:37:57;99057.50;;;34.45;10.75
70200;BME280;57587;55.688;37.600;2023-04-22T05:40:24;99053.53;;;34.58;10.38
70200;BME280;57587;55.688;37.600;2023-04-22T05:42:51;99047.72;;;34.79;10.32
70200;BME280;57587;55.688;37.600;2023-04-22T05:45:19;99045.03;;;34.82;10.02
70200;BME280;57587;55.688;37.600;2023-04-22T05:47:47;99050.38;;;34.59;10.01
70200;BME280;57587;55.688;37.600;2023-04-22T05:50:14;99053.81;;;34.84;10.58
70200;BME280;57587;55.688;37.600;2023-04-22T05:52:51;99045.06;;;35.33;9.94
70200;BME280;57587;55.688;37.600;2023-04-22T05:55:18;99047.72;;;35.46;9.56
70200;BME280;57587;55.688;37.600;2023-04-22T05:57:46;99061.44;;;35.19;9.86
70200;BME280;57587;55.688;37.600;2023-04-22T06:00:31;99046.28;;;35.17;9.86
70200;BME280;57587;55.688;37.600;2023-04-22T06:03:18;99051.84;;;35.01;9.50
70200;BME280;57587;55.688;37.600;2023-04-22T06:05:46;99051.13;;;34.72;9.90
70200;BME280;57587;55.688;37.600;2023-04-22T06:08:13;99057.19;;;34.78;9.91
70200;BME280;57587;55.688;37.600;2023-04-22T06:10:40;99053.53;;;35.05;9.71
70200;BME280;57587;55.688;37.600;2023-04-22T06:13:09;99042.59;;;35.28;9.46
70200;BME280;57587;55.688;37.600;2023-04-22T06:15:36;99048.63;;;35.66;9.53
70200;BME280;57587;55.688;37.600;2023-04-22T06:18:03;99053.19;;;35.58;9.55
70200;BME280;57587;55.688;37.600;2023-04-22T06:20:30;99054.13;;;35.82;9.40
70200;BME280;57587;55.688;37.600;2023-04-22T06:23:01;99054.78;;;35.94;9.18
70200;BME280;57587;55.688;37.600;2023-04-22T06:25:31;99054.78;;;36.14;8.91
70200;BME280;57587;55.688;37.600;2023-04-22T06:27:58;99047.69;;;36.16;9.08
70200;BME280;57587;55.688;37.600;2023-04-22T06:30:26;99052.22;;;36.24;9.33
70200;BME280;57587;55.688;37.600;2023-04-22T06:32:54;99053.78;;;36.45;8.81
70200;BME280;57587;55.688;37.600;2023-04-22T06:35:23;99040.88;;;36.33;8.82
70200;BME280;57587;55.688;37.600;2023-04-22T06:37:50;99046.41;;;36.76;8.63
70200;BME280;57587;55.688;37.600;2023-04-22T06:40:18;99038.56;;;36.81;8.55
70200;BME280;57587;55.688;37.600;2023-04-22T06:42:46;99040.75;;;37.18;8.78
70200;BME280;57587;55.688;37.600;2023-04-22T06:45:25;99044.00;;;37.20;8.04
70200;BME280;57587;55.688;37.600;2023-04-22T06:48:10;99045.81;;;36.86;8.54
70200;BME280;57587;55.688;37.600;2023-04-22T06:50:57;99038.03;;;36.10;9.10
70200;BME280;57587;55.688;37.600;2023-04-22T06:53:24;99049.28;;;36.37;8.61
70200;BME280;57587;55.688;37.600;2023-04-22T06:55:52;99034.34;;;35.87;9.04
70200;BME280;57587;55.688;37.600;2023-04-22T06:58:20;99037.22;;;34.28;9.68
70200;BME280;57587;55.688;37.600;2023-04-22T07:00:48;99029.91;;;31.90;11.29
70200;BME280;57587;55.688;37.600;2023-04-22T07:03:15;99034.66;;;32.56;10.67
70200;BME280;57587;55.688;37.600;2023-04-22T07:05:42;99035.75;;;33.13;10.92
70200;BME280;57587;55.688;37.600;2023-04-22T07:08:10;99030.25;;;34.34;10.51
70200;BME280;57587;55.688;37.600;2023-04-22T07:10:37;99024.19;;;32.87;11.16
70200;BME280;57587;55.688;37.600;2023-04-22T07:13:29;99024.44;;;30.63;12.01
70200;BME280;57587;55.688;37.600;2023-04-22T07:16:00;99035.16;;;31.62;11.84
70200;BME280;57587;55.688;37.600;2023-04-22T07:18:28;99031.22;;;32.72;11.13
70200;BME280;57587;55.688;37.600;2023-04-22T07:20:55;99032.06;;;33.86;10.73
70200;BME280;57587;55.688;37.600;2023-04-22T07:23:22;99031.03;;;34.79;9.75
70200;BME280;57587;55.688;37.600;2023-04-22T07:25:50;99037.03;;;34.65;9.64
70200;BME280;57587;55.688;37.600;2023-04-22T07:28:17;99026.97;;;35.24;9.24
70200;BME280;57587;55.688;37.600;2023-04-22T07:30:44;99034.88;;;35.22;9.31
70200;BME280;57587;55.688;37.600;2023-04-22T07:33:11;99038.44;;;33.74;10.24
70200;BME280;57587;55.688;37.600;2023-04-22T07:35:39;99027.44;;;31.68;12.03
70200;BME280;57587;55.688;37.600;2023-04-22T07:38:06;99036.03;;;30.30;12.70
70200;BME280;57587;55.688;37.600;2023-04-22T07:40:35;99035.78;;;29.14;13.69
70200;BME280;57587;55.688;37.600;2023-04-22T07:43:02;99034.19;;;28.05;14.19
70200;BME280;57587;55.688;37.600;2023-04-22T07:45:31;99026.06;;;27.28;14.84
70200;BME280;57587;55.688;37.600;2023-04-22T07:47:59;99038.94;;;26.72;15.39
70200;BME280;57587;55.688;37.600;2023-04-22T07:50:26;99032.97;;;28.65;13.81
70200;BME280;57587;55.688;37.600;2023-04-22T07:52:53;99033.28;;;28.10;13.82
70200;BME280;57587;55.688;37.600;2023-04-22T07:55:21;99029.41;;;27.11;14.43
70200;BME280;57587;55.688;37.600;2023-04-22T07:57:48;99030.78;;;26.53;15.13
70200;BME280;57587;55.688;37.600;2023-04-22T08:00:15;99030.09;;;26.29;15.49
70200;BME280;57587;55.688;37.600;2023-04-22T08:02:42;99036.16;;;28.99;13.59
70200;BME280;57587;55.688;37.600;2023-04-22T08:05:10;99029.91;;;30.72;12.24
70200;BME280;57587;55.688;37.600;2023-04-22T08:07:37;99026.44;;;32.48;11.88
70200;BME280;57587;55.688;37.600;2023-04-22T08:10:05;99034.22;;;32.79;11.03
70200;BME280;57587;55.688;37.600;2023-04-22T08:12:32;99043.03;;;33.55;10.52
70200;BME280;57587;55.688;37.600;2023-04-22T08:14:59;99030.78;;;32.36;11.32
70200;BME280;57587;55.688;37.600;2023-04-22T08:17:27;99033.31;;;31.16;11.93
70200;BME280;57587;55.688;37.600;2023-04-22T08:19:54;99033.63;;;29.85;13.19
70200;BME280;57587;55.688;37.600;2023-04-22T08:22:21;99036.59;;;28.43;13.81
70200;BME280;57587;55.688;37.600;2023-04-22T08:24:50;99034.56;;;27.40;14.62
70200;BME280;57587;55.688;37.600;2023-04-22T08:27:17;99041.56;;;26.50;15.47
70200;BME280;57587;55.688;37.600;2023-04-22T08:29:45;99040.81;;;27.32;15.53
70200;BME280;57587;55.688;37.600;2023-04-22T08:32:12;99042.47;;;27.55;14.64
70200;BME280;57587;55.688;37.600;2023-04-22T08:34:39;99038.97;;;26.86;15.43
70200;BME280;57587;55.688;37.600;2023-04-22T08:37:07;99034.94;;;26.18;15.99
70200;BME280;57587;55.688;37.600;2023-04-22T08:39:34;99042.47;;;25.56;16.38
70200;BME280;57587;55.688;37.600;2023-04-22T08:42:01;99034.94;;;24.99;17.25
70200;BME280;57587;55.688;37.600;2023-04-22T08:44:28;99038.56;;;24.42;17.21
70200;BME280;57587;55.688;37.600;2023-04-22T08:46:57;99035.44;;;23.85;17.66
70200;BME280;57587;55.688;37.600;2023-04-22T08:49:27;99020.78;;;23.21;17.92
70200;BME280;57587;55.688;37.600;2023-04-22T08:51:56;99028.75;;;23.02;17.73
70200;BME280;57587;55.688;37.600;2023-04-22T08:54:23;99030.13;;;22.94;18.27
70200;BME280;57587;55.688;37.600;2023-04-22T08:56:50;99021.41;;;23.52;18.23
70200;BME280;57587;55.688;37.600;2023-04-22T08:59:18;99026.91;;;23.47;18.48
70200;BME280;57587;55.688;37.600;2023-04-22T09:01:50;99025.59;;;23.34;18.04
70200;BME280;57587;55.688;37.600;2023-04-22T09:04:18;99026.47;;;23.24;17.73
70200;BME280;57587;55.688;37.600;2023-04-22T09:06:45;99021.53;;;23.32;17.71
70200;BME280;57587;55.688;37.600;2023-04-22T09:09:12;99021.81;;;23.25;18.36
70200;BME280;57587;55.688;37.600;2023-04-22T09:11:40;99018.59;;;23.18;17.85
70200;BME280;57587;55.688;37.600;2023-04-22T09:14:07;99031.19;;;23.04;18.22
70200;BME280;57587;55.688;37.600;2023-04-22T09:16:40;99027.69;;;22.88;18.55
70200;BME280;57587;55.688;37.600;2023-04-22T09:19:13;99028.00;;;22.71;18.67
70200;BME280;57587;55.688;37.600;2023-04-22T09:21:41;99031.06;;;22.49;18.81
70200;BME280;57587;55.688;37.600;2023-04-22T09:24:10;99024.78;;;22.38;19.01
70200;BME280;57587;55.688;37.600;2023-04-22T09:26:41;99020.19;;;22.28;18.96
70200;BME280;57587;55.688;37.600;2023-04-22T09:29:13;99021.53;;;22.26;18.98
70200;BME280;57587;55.688;37.600;2023-04-22T09:31:41;99021.50;;;22.51;18.64
70200;BME280;57587;55.688;37.600;2023-04-22T09:34:08;99019.66;;;23.22;17.91
70200;BME280;57587;55.688;37.600;2023-04-22T09:36:35;99021.81;;;23.25;18.58
70200;BME280;57587;55.688;37.600;2023-04-22T09:39:06;99019.34;;;23.78;17.65
70200;BME280;57587;55.688;37.600;2023-04-22T09:41:36;99015.41;;;24.58;17.17
70200;BME280;57587;55.688;37.600;2023-04-22T09:44:13;99010.66;;;25.17;17.20
70200;BME280;57587;55.688;37.600;2023-04-22T09:46:41;99015.88;;;25.37;16.57
70200;BME280;57587;55.688;37.600;2023-04-22T09:49:09;99010.94;;;25.58;16.59
70200;BME280;57587;55.688;37.600;2023-04-22T09:51:39;99011.56;;;25.69;16.31
70200;BME280;57587;55.688;37.600;2023-04-22T09:54:09;99014.53;;;25.72;15.85
70200;BME280;57587;55.688;37.600;2023-04-22T09:59:08;99010.34;;;25.61;15.31
70200;BME280;57587;55.688;37.600;2023-04-22T10:01:36;99017.06;;;25.31;15.29
70200;BME280;57587;55.688;37.600;2023-04-22T10:04:06;99008.38;;;25.00;15.56
70200;BME280;57587;55.688;37.600;2023-04-22T10:06:36;98996.91;;;24.98;15.65
70200;BME280;57587;55.688;37.600;2023-04-22T10:09:03;99003.41;;;24.59;16.06
70200;BME280;57587;55.688;37.600;2023-04-22T10:11:34;99012.34;;;24.35;16.22
70200;BME280;57587;55.688;37.600;2023-04-22T10:14:01;99013.09;;;24.12;16.42
70200;BME280;57587;55.688;37.600;2023-04-22T10:16:30;99003.31;;;24.06;16.84
70200;BME280;57587;55.688;37.600;2023-04-22T10:19:00;98998.72;;;23.57;16.97
70200;BME280;57587;55.688;37.600;2023-04-22T10:21:29;99012.00;;;23.29;18.51
70200;BME280;57587;55.688;37.600;2023-04-22T10:23:58;99005.03;;;22.97;19.08
70200;BME280;57587;55.688;37.600;2023-04-22T10:26:40;99007.28;;;22.70;19.07
70200;BME280;57587;55.688;37.600;2023-04-22T10:29:11;99002.72;;;22.40;19.79
70200;BME280;57587;55.688;37.600;2023-04-22T10:31:38;98997.03;;;22.21;20.32
70200;BME280;57587;55.688;37.600;2023-04-22T10:34:13;99001.63;;;22.00;19.85
70200;BME280;57587;55.688;37.600;2023-04-22T10:37:06;99004.63;;;21.78;18.56
70200;BME280;57587;55.688;37.600;2023-04-22T10:39:34;99007.88;;;21.59;18.44
70200;BME280;57587;55.688;37.600;2023-04-22T10:47:10;99008.13;;;21.53;19.53
70200;BME280;57587;55.688;37.600;2023-04-22T10:49:37;99010.06;;;21.62;19.38
70200;BME280;57587;55.688;37.600;2023-04-22T10:52:05;99004.88;;;21.66;18.37
70200;BME280;57587;55.688;37.600;2023-04-22T10:59:56;99000.22;;;21.51;18.51
70200;BME280;57587;55.688;37.600;2023-04-22T11:02:24;98999.06;;;21.32;18.60
70200;BME280;57587;55.688;37.600;2023-04-22T11:05:25;99003.66;;;21.16;18.73
70200;BME280;57587;55.688;37.600;2023-04-22T11:07:55;98990.22;;;20.89;18.80
70200;BME280;57587;55.688;37.600;2023-04-22T11:10:35;98986.44;;;20.95;19.89
70200;BME280;57587;55.688;37.600;2023-04-22T11:13:17;98978.34;;;21.15;19.84
70200;BME280;57587;55.688;37.600;2023-04-22T11:15:47;99002.31;;;21.24;20.02
70200;BME280;57587;55.688;37.600;2023-04-22T11:18:21;98997.41;;;21.26;20.01
70200;BME280;57587;55.688;37.600;2023-04-22T11:20:48;98999.00;;;21.11;20.12
70200;BME280;57587;55.688;37.600;2023-04-22T11:23:26;98997.28;;;20.85;19.88
70200;BME280;57587;55.688;37.600;2023-04-22T11:26:01;99007.22;;;20.64;20.31
70200;BME280;57587;55.688;37.600;2023-04-22T11:28:30;99006.00;;;20.49;20.56
70200;BME280;57587;55.688;37.600;2023-04-22T11:31:04;98999.47;;;20.45;20.45
70200;BME280;57587;55.688;37.600;2023-04-22T11:33:32;98995.13;;;20.44;20.61
70200;BME280;57587;55.688;37.600;2023-04-22T11:36:00;98993.75;;;20.42;20.90
70200;BME280;57587;55.688;37.600;2023-04-22T11:38:27;98989.09;;;20.37;20.10
70200;BME280;57587;55.688;37.600;2023-04-22T11:40:55;98991.25;;;20.35;20.64
70200;BME280;57587;55.688;37.600;2023-04-22T11:43:24;98993.66;;;20.26;20.03
70200;BME280;57587;55.688;37.600;2023-04-22T11:45:54;99002.66;;;19.95;19.69
70200;BME280;57587;55.688;37.600;2023-04-22T11:48:22;98992.25;;;19.59;20.10
70200;BME280;57587;55.688;37.600;2023-04-22T11:51:06;98984.81;;;19.50;20.51
70200;BME280;57587;55.688;37.600;2023-04-22T11:53:34;98987.44;;;19.40;20.20
70200;BME280;57587;55.688;37.600;2023-04-22T11:56:01;98979.44;;;19.28;20.47
70200;BME280;57587;55.688;37.600;2023-04-22T11:58:29;98982.94;;;19.23;20.89
70200;BME280;57587;55.688;37.600;2023-04-22T12:00:57;98977.66;;;19.39;21.14
70200;BME280;57587;55.688;37.600;2023-04-22T12:03:27;98974.34;;;19.58;20.75
70200;BME280;57587;55.688;37.600;2023-04-22T12:05:58;98982.72;;;19.84;21.07
70200;BME280;57587;55.688;37.600;2023-04-22T12:10:59;98970.56;;;20.29;19.99
70200;BME280;57587;55.688;37.600;2023-04-22T12:16:17;98971.50;;;20.50;20.21
70200;BME280;57587;55.688;37.600;2023-04-22T12:18:52;98973.63;;;20.43;20.22
70200;BME280;57587;55.688;37.600;2023-04-22T12:21:24;98970.31;;;20.31;20.21
70200;BME280;57587;55.688;37.600;2023-04-22T12:23:57;98977.59;;;20.25;20.41
70200;BME280;57587;55.688;37.600;2023-04-22T12:26:25;98972.97;;;20.20;19.95
70200;BME280;57587;55.688;37.600;2023-04-22T12:28:55;98968.50;;;20.04;19.78
70200;BME280;57587;55.688;37.600;2023-04-22T12:31:24;98971.84;;;19.57;19.51
70200;BME280;57587;55.688;37.600;2023-04-22T12:33:52;98969.47;;;19.33;19.52
70200;BME280;57587;55.688;37.600;2023-04-22T12:36:20;98961.84;;;19.30;20.07
70200;BME280;57587;55.688;37.600;2023-04-22T12:38:48;98962.16;;;19.34;20.14
70200;BME280;57587;55.688;37.600;2023-04-22T12:41:15;98963.38;;;19.21;19.96
70200;BME280;57587;55.688;37.600;2023-04-22T12:43:42;98963.84;;;18.91;20.68
70200;BME280;57587;55.688;37.600;2023-04-22T12:46:10;98961.06;;;18.86;21.21
70200;BME280;57587;55.688;37.600;2023-04-22T12:48:37;98961.59;;;18.83;21.42
70200;BME280;57587;55.688;37.600;2023-04-22T12:51:05;98963.94;;;18.74;21.94
70200;BME280;57587;55.688;37.600;2023-04-22T12:53:33;98955.50;;;18.54;21.79
70200;BME280;57587;55.688;37.600;2023-04-22T12:56:00;98959.78;;;18.50;21.84
70200;BME280;57587;55.688;37.600;2023-04-22T12:58:27;98951.50;;;18.39;21.75
70200;BME280;57587;55.688;37.600;2023-04-22T13:00:54;98950.19;;;18.42;21.84
70200;BME280;57587;55.688;37.600;2023-04-22T13:03:21;98958.63;;;18.46;21.83
70200;BME280;57587;55.688;37.600;2023-04-22T13:05:50;98956.69;;;18.41;21.46
70200;BME280;57587;55.688;37.600;2023-04-22T13:08:18;98953.97;;;18.41;21.57
70200;BME280;57587;55.688;37.600;2023-04-22T13:11:03;98956.19;;;18.44;21.70
70200;BME280;57587;55.688;37.600;2023-04-22T13:13:30;98960.78;;;18.43;21.62
70200;BME280;57587;55.688;37.600;2023-04-22T13:15:57;98956.09;;;18.39;22.49
70200;BME280;57587;55.688;37.600;2023-04-22T13:18:24;98959.06;;;18.37;22.20